createdAt,value
2022-10-20T00:00:27.604Z,73584.50
2022-10-20T00:01:02.793Z,73588.47
2022-10-20T00:01:35.170Z,73584.50
2022-10-20T00:02:07.358Z,73580.50
2022-10-20T00:02:42.211Z,73586.47
2022-10-20T00:03:14.398Z,73580.50
2022-10-20T00:03:47.477Z,73584.50
2022-10-20T00:04:22.395Z,73582.50
2022-10-20T00:04:54.564Z,73584.50
2022-10-20T00:05:26.809Z,73582.50
2022-10-20T00:06:09.799Z,73580.50
2022-10-20T00:06:42.056Z,73584.50
2022-10-20T00:07:14.267Z,73580.50
2022-10-20T00:07:49.067Z,73578.50
2022-10-20T00:08:21.351Z,73568.50
2022-10-20T00:08:54.134Z,73576.50
2022-10-20T00:09:29.052Z,73576.50
2022-10-20T00:10:01.258Z,73578.50
2022-10-20T00:10:34.103Z,73576.50
2022-10-20T00:11:09.584Z,73568.50
2022-10-20T00:11:41.768Z,73568.50
2022-10-20T00:12:14.050Z,73562.53
2022-10-20T00:12:51.434Z,73568.50
2022-10-20T00:13:24.101Z,73562.53
2022-10-20T00:13:57.685Z,73564.53
2022-10-20T00:14:32.491Z,73564.53
2022-10-20T00:15:05.408Z,73560.53
2022-10-20T00:15:37.609Z,73564.53
2022-10-20T00:16:12.849Z,73560.53
2022-10-20T00:16:45.043Z,73560.53
2022-10-20T00:17:17.240Z,73560.53
2022-10-20T00:17:52.019Z,73562.53
2022-10-20T00:18:24.907Z,73560.53
2022-10-20T00:18:57.719Z,73564.53
2022-10-20T00:19:33.062Z,73564.53
2022-10-20T00:20:06.703Z,73560.53
2022-10-20T00:20:40.274Z,73564.53
2022-10-20T00:21:14.756Z,73560.53
2022-10-20T00:21:49.701Z,73562.53
2022-10-20T00:22:21.937Z,73560.53
2022-10-20T00:22:54.134Z,73566.53
2022-10-20T00:23:29.125Z,73558.53
2022-10-20T00:24:01.879Z,73560.53
2022-10-20T00:24:34.176Z,73560.53
2022-10-20T00:25:09.699Z,73560.53
2022-10-20T00:25:41.892Z,73564.53
2022-10-20T00:26:16.095Z,73552.53
2022-10-20T00:26:50.895Z,73560.53
2022-10-20T00:27:23.602Z,73560.53
2022-10-20T00:27:58.544Z,73558.53
2022-10-20T00:28:30.760Z,73554.53
2022-10-20T00:29:06.918Z,73552.53
2022-10-20T00:29:39.332Z,73548.56
2022-10-20T00:30:12.026Z,73554.53
2022-10-20T00:30:46.828Z,73550.56
2022-10-20T00:31:20.193Z,73546.56
2022-10-20T00:31:54.956Z,73548.56
2022-10-20T00:32:27.501Z,73552.53
2022-10-20T00:32:59.695Z,73538.56
2022-10-20T00:33:31.953Z,73544.56
2022-10-20T00:34:06.733Z,73540.56
2022-10-20T00:34:39.096Z,73544.56
2022-10-20T00:35:11.389Z,73542.56
2022-10-20T00:35:45.643Z,73540.56
2022-10-20T00:36:22.523Z,73544.56
2022-10-20T00:36:54.704Z,73540.56
2022-10-20T00:37:29.565Z,73538.56
2022-10-20T00:38:01.740Z,73538.56
2022-10-20T00:38:34.258Z,73536.56
2022-10-20T00:39:09.484Z,73536.56
2022-10-20T00:39:41.671Z,73536.56
2022-10-20T00:40:14.127Z,73534.56
2022-10-20T00:40:46.379Z,73536.56
2022-10-20T00:41:23.484Z,73532.59
2022-10-20T00:41:55.669Z,73530.59
2022-10-20T00:42:27.867Z,73530.59
2022-10-20T00:43:05.279Z,73536.56
2022-10-20T00:43:46.393Z,73530.59
2022-10-20T00:44:47.695Z,73528.59
2022-10-20T00:45:24.336Z,73526.59
2022-10-20T00:45:57.888Z,73528.59
2022-10-20T00:46:33.811Z,73526.59
2022-10-20T00:47:08.592Z,73524.59
2022-10-20T00:48:19.018Z,73524.59
2022-10-20T00:48:56.577Z,73524.59
2022-10-20T00:49:28.848Z,73524.59
2022-10-20T00:50:06.233Z,73520.59
2022-10-20T00:50:41.725Z,73518.59
2022-10-20T00:51:18.891Z,73526.59
2022-10-20T00:51:52.132Z,73528.59
2022-10-20T00:52:25.634Z,73528.59
2022-10-20T00:53:00.642Z,73522.59
2022-10-20T00:53:32.853Z,73520.59
2022-10-20T00:54:08.509Z,73522.59
2022-10-20T00:54:43.684Z,73524.59
2022-10-20T00:55:20.180Z,73528.59
2022-10-20T00:55:55.654Z,73524.59
2022-10-20T00:56:30.573Z,73518.59
2022-10-20T00:57:56.775Z,73524.59
2022-10-20T00:58:34.213Z,73524.59
2022-10-20T00:59:06.620Z,73520.59
2022-10-20T00:59:40.296Z,73530.59
2022-10-20T01:00:16.773Z,73528.59
2022-10-20T01:00:51.696Z,73530.59
2022-10-20T01:01:24.307Z,73524.59
2022-10-20T01:01:59.528Z,73532.59
2022-10-20T01:02:31.957Z,73528.59
2022-10-20T01:03:04.673Z,73528.59
2022-10-20T01:03:45.648Z,73528.59
2022-10-20T01:04:18.368Z,73526.59
2022-10-20T01:04:51.917Z,73524.59
2022-10-20T01:05:27.025Z,73534.56
2022-10-20T01:05:59.254Z,73522.59
2022-10-20T01:06:31.437Z,73526.59
2022-10-20T01:07:06.366Z,73528.59
2022-10-20T01:07:38.990Z,73524.59
2022-10-20T01:08:11.361Z,73522.59
2022-10-20T01:08:46.205Z,73524.59
2022-10-20T01:09:18.514Z,73526.59
2022-10-20T01:09:50.759Z,73528.59
2022-10-20T01:10:26.581Z,73524.59
2022-10-20T01:11:06.924Z,73524.59
2022-10-20T01:11:43.781Z,73526.59
2022-10-20T01:12:25.730Z,73520.59
2022-10-20T01:13:01.512Z,73528.59
2022-10-20T01:13:40.438Z,73524.59
2022-10-20T01:14:23.732Z,73524.59
2022-10-20T01:15:02.729Z,73524.59
2022-10-20T01:15:42.396Z,73528.59
2022-10-20T01:16:22.917Z,73530.59
2022-10-20T01:16:59.629Z,73528.59
2022-10-20T01:17:40.165Z,73526.59
2022-10-20T01:18:19.245Z,73530.59
2022-10-20T01:18:57.920Z,73528.59
2022-10-20T01:19:53.596Z,73516.59
2022-10-20T01:20:50.716Z,73518.59
2022-10-20T01:21:43.663Z,73520.59
2022-10-20T01:22:31.139Z,73516.59
2022-10-20T01:23:19.583Z,73520.59
2022-10-20T01:24:04.827Z,73526.59
2022-10-20T01:24:58.416Z,73518.59
2022-10-20T01:25:46.266Z,73520.59
2022-10-20T01:26:44.140Z,73516.59
2022-10-20T01:27:39.855Z,73522.59
2022-10-20T01:28:17.507Z,73516.59
2022-10-20T01:28:53.605Z,73514.63
2022-10-20T01:29:27.934Z,73512.63
2022-10-20T01:30:08.808Z,73516.59
2022-10-20T01:30:46.005Z,73520.59
2022-10-20T01:31:23.630Z,73512.63
2022-10-20T01:32:11.607Z,73512.63
2022-10-20T01:32:54.765Z,73508.63
2022-10-20T01:33:35.203Z,73510.63
2022-10-20T01:34:11.099Z,73512.63
2022-10-20T01:34:52.147Z,73508.63
2022-10-20T01:35:37.847Z,73504.63
2022-10-20T01:36:14.060Z,73504.63
2022-10-20T01:36:49.744Z,73504.63
2022-10-20T01:37:47.508Z,73504.63
2022-10-20T01:38:24.828Z,73508.63
2022-10-20T01:39:01.622Z,73500.63
2022-10-20T01:39:39.239Z,73504.63
2022-10-20T01:40:17.029Z,73508.63
2022-10-20T01:40:51.433Z,73500.63
2022-10-20T01:41:33.241Z,73500.63
2022-10-20T01:42:08.094Z,73492.66
2022-10-20T01:42:46.661Z,73500.63
2022-10-20T01:43:21.658Z,73496.66
2022-10-20T01:43:54.324Z,73492.66
2022-10-20T01:44:31.021Z,73496.66
2022-10-20T01:45:05.784Z,73494.66
2022-10-20T01:45:40.395Z,73496.66
2022-10-20T01:46:15.729Z,73494.66
2022-10-20T01:46:48.605Z,73486.66
2022-10-20T01:47:21.346Z,73492.66
2022-10-20T01:47:57.124Z,73496.66
2022-10-20T01:48:33.652Z,73492.66
2022-10-20T01:49:06.510Z,73490.66
2022-10-20T01:49:41.305Z,73492.66
2022-10-20T01:50:15.174Z,73488.66
2022-10-20T01:50:48.103Z,73488.66
2022-10-20T01:51:22.997Z,73490.66
2022-10-20T01:51:55.877Z,73484.66
2022-10-20T01:52:29.031Z,73492.66
2022-10-20T01:53:01.725Z,73484.66
2022-10-20T01:53:36.512Z,73486.66
2022-10-20T01:54:20.523Z,73484.66
2022-10-20T01:54:52.701Z,73488.66
2022-10-20T01:55:27.740Z,73484.66
2022-10-20T01:56:01.301Z,73484.66
2022-10-20T01:56:38.617Z,73486.66
2022-10-20T01:57:24.641Z,73474.69
2022-10-20T01:58:15.197Z,73480.69
2022-10-20T01:59:17.509Z,73480.69
2022-10-20T02:00:00.756Z,73484.66
2022-10-20T02:00:35.233Z,73484.66
2022-10-20T02:01:17.345Z,73480.69
2022-10-20T02:02:01.572Z,73478.69
2022-10-20T02:02:45.727Z,73476.69
2022-10-20T02:03:33.529Z,73476.69
2022-10-20T02:04:05.980Z,73474.69
2022-10-20T02:04:45.384Z,73476.69
2022-10-20T02:05:29.199Z,73476.69
2022-10-20T02:06:09.553Z,73468.69
2022-10-20T02:06:43.972Z,73472.69
2022-10-20T02:07:21.232Z,73468.69
2022-10-20T02:07:54.967Z,73468.69
2022-10-20T02:08:32.946Z,73472.69
2022-10-20T02:09:09.637Z,73464.72
2022-10-20T02:09:45.693Z,73468.69
2022-10-20T02:10:21.603Z,73466.69
2022-10-20T02:11:00.365Z,73458.72
2022-10-20T02:11:40.205Z,73460.72
2022-10-20T02:12:16.074Z,73460.72
2022-10-20T02:12:55.019Z,73454.72
2022-10-20T02:13:31.192Z,73462.72
2022-10-20T02:14:04.016Z,73458.72
2022-10-20T02:14:39.567Z,73458.72
2022-10-20T02:15:15.461Z,73452.72
2022-10-20T02:15:49.811Z,73454.72
2022-10-20T02:16:30.848Z,73452.72
2022-10-20T02:17:07.400Z,73452.72
2022-10-20T02:17:40.431Z,73452.72
2022-10-20T02:18:18.775Z,73454.72
2022-10-20T02:18:51.642Z,73448.75
2022-10-20T02:19:26.644Z,73452.72
2022-10-20T02:20:01.573Z,73450.72
2022-10-20T02:20:33.984Z,73452.72
2022-10-20T02:21:07.474Z,73452.72
2022-10-20T02:21:42.404Z,73446.75
2022-10-20T02:22:15.465Z,73450.72
2022-10-20T02:22:48.355Z,73448.75
2022-10-20T02:23:20.931Z,73448.75
2022-10-20T02:23:57.181Z,73448.75
2022-10-20T02:24:31.068Z,73440.75
2022-10-20T02:25:03.528Z,73446.75
2022-10-20T02:25:38.765Z,73448.75
2022-10-20T02:26:14.771Z,73444.75
2022-10-20T02:26:47.017Z,73448.75
2022-10-20T02:27:25.633Z,73446.75
2022-10-20T02:28:36.192Z,73440.75
2022-10-20T02:29:18.069Z,73444.75
2022-10-20T02:29:53.901Z,73448.75
2022-10-20T02:30:26.248Z,73452.72
2022-10-20T02:31:01.124Z,73438.75
2022-10-20T02:31:33.460Z,73434.75
2022-10-20T02:32:06.385Z,73416.78
2022-10-20T02:32:43.480Z,73400.81
2022-10-20T02:33:17.120Z,73392.84
2022-10-20T02:33:49.417Z,73380.88
2022-10-20T02:34:24.305Z,73372.88
2022-10-20T02:34:56.492Z,73362.91
2022-10-20T02:35:32.475Z,73364.88
2022-10-20T02:36:10.512Z,73352.91
2022-10-20T02:36:43.715Z,73346.94
2022-10-20T02:37:52.483Z,73340.94
2022-10-20T02:38:25.019Z,73340.94
2022-10-20T02:38:57.273Z,73334.94
2022-10-20T02:39:29.520Z,73324.97
2022-10-20T02:40:04.390Z,73332.94
2022-10-20T02:40:36.579Z,73326.97
2022-10-20T02:41:08.766Z,73330.97
2022-10-20T02:41:43.549Z,73320.97
2022-10-20T02:42:17.354Z,73320.97
2022-10-20T02:42:49.660Z,73320.97
2022-10-20T02:43:24.440Z,73320.97
2022-10-20T02:43:59.427Z,73316.97
2022-10-20T02:44:31.641Z,73324.97
2022-10-20T02:45:04.371Z,73320.97
2022-10-20T02:45:39.232Z,73315.00
2022-10-20T02:46:11.577Z,73316.97
2022-10-20T02:46:43.783Z,73309.00
2022-10-20T02:47:21.081Z,73315.00
2022-10-20T02:47:53.251Z,73309.00
2022-10-20T02:48:25.435Z,73313.00
2022-10-20T02:49:00.220Z,73309.00
2022-10-20T02:49:32.422Z,73313.00
2022-10-20T02:50:05.269Z,73307.00
2022-10-20T02:50:40.594Z,73309.00
2022-10-20T02:51:13.387Z,73309.00
2022-10-20T02:51:45.567Z,73313.00
2022-10-20T02:52:20.351Z,73309.00
2022-10-20T02:52:52.531Z,73309.00
2022-10-20T02:53:24.759Z,73309.00
2022-10-20T02:53:59.545Z,73313.00
2022-10-20T02:54:31.741Z,73309.00
2022-10-20T02:55:04.951Z,73305.00
2022-10-20T02:55:39.765Z,73305.00
2022-10-20T02:56:12.047Z,73313.00
2022-10-20T02:56:44.340Z,73307.00
2022-10-20T02:57:19.219Z,73305.00
2022-10-20T02:57:53.961Z,73309.00
2022-10-20T02:58:26.358Z,73311.00
2022-10-20T02:59:04.242Z,73301.00
2022-10-20T02:59:36.531Z,73303.00
2022-10-20T03:00:10.293Z,73301.00
2022-10-20T03:00:45.168Z,73299.00
2022-10-20T03:01:17.437Z,73297.03
2022-10-20T03:01:51.370Z,73293.03
2022-10-20T03:02:26.240Z,73295.03
2022-10-20T03:02:58.437Z,73297.03
2022-10-20T03:03:30.839Z,73289.03
2022-10-20T03:04:05.620Z,73297.03
2022-10-20T03:04:37.825Z,73293.03
2022-10-20T03:05:10.101Z,73301.00
2022-10-20T03:05:45.056Z,73301.00
2022-10-20T03:06:17.753Z,73303.00
2022-10-20T03:06:49.950Z,73293.03
2022-10-20T03:07:24.764Z,73293.03
2022-10-20T03:07:56.941Z,73293.03
2022-10-20T03:08:29.242Z,73295.03
2022-10-20T03:09:04.195Z,73297.03
2022-10-20T03:09:36.453Z,73293.03
2022-10-20T03:10:09.519Z,73297.03
2022-10-20T03:10:44.602Z,73293.03
2022-10-20T03:11:16.799Z,73299.00
2022-10-20T03:11:49.000Z,73289.03
2022-10-20T03:12:23.797Z,73289.03
2022-10-20T03:12:55.973Z,73289.03
2022-10-20T03:14:25.475Z,73285.03
2022-10-20T03:14:57.790Z,73281.06
2022-10-20T03:15:30.055Z,73285.03
2022-10-20T03:16:05.267Z,73279.06
2022-10-20T03:16:37.977Z,73279.06
2022-10-20T03:17:10.346Z,73277.06
2022-10-20T03:17:45.133Z,73277.06
2022-10-20T03:18:17.333Z,73277.06
2022-10-20T03:18:49.580Z,73283.03
2022-10-20T03:19:24.384Z,73277.06
2022-10-20T03:19:56.593Z,73277.06
2022-10-20T03:20:28.771Z,73269.06
2022-10-20T03:21:00.950Z,73279.06
2022-10-20T03:21:35.736Z,73269.06
2022-10-20T03:22:07.931Z,73275.06
2022-10-20T03:22:40.132Z,73271.06
2022-10-20T03:23:17.746Z,73269.06
2022-10-20T03:23:52.229Z,73277.06
2022-10-20T03:24:24.416Z,73275.06
2022-10-20T03:24:59.223Z,73273.06
2022-10-20T03:25:31.766Z,73273.06
2022-10-20T03:26:05.636Z,73273.06
2022-10-20T03:26:40.397Z,73269.06
2022-10-20T03:27:12.570Z,73277.06
2022-10-20T03:27:44.748Z,73269.06
2022-10-20T03:28:20.317Z,73277.06
2022-10-20T03:28:52.500Z,73273.06
2022-10-20T03:29:27.285Z,73273.06
2022-10-20T03:30:02.125Z,73275.06
2022-10-20T03:30:34.361Z,73273.06
2022-10-20T03:31:06.875Z,73273.06
2022-10-20T03:31:41.760Z,73277.06
2022-10-20T03:32:14.133Z,73267.06
2022-10-20T03:32:46.320Z,73269.06
2022-10-20T03:33:21.103Z,73269.06
2022-10-20T03:33:53.293Z,73271.06
2022-10-20T03:34:25.736Z,73275.06
2022-10-20T03:35:00.811Z,73273.06
2022-10-20T03:35:33.061Z,73273.06
2022-10-20T03:36:08.702Z,73269.06
2022-10-20T03:36:40.932Z,73271.06
2022-10-20T03:37:13.148Z,73269.06
2022-10-20T03:37:47.924Z,73277.06
2022-10-20T03:38:20.134Z,73271.06
2022-10-20T03:38:52.312Z,73267.06
2022-10-20T03:39:27.090Z,73277.06
2022-10-20T03:39:59.299Z,73273.06
2022-10-20T03:40:31.473Z,73269.06
2022-10-20T03:41:06.326Z,73273.06
2022-10-20T03:41:38.520Z,73277.06
2022-10-20T03:42:10.698Z,73275.06
2022-10-20T03:42:42.913Z,73281.06
2022-10-20T03:43:18.043Z,73281.06
2022-10-20T03:43:50.316Z,73281.06
2022-10-20T03:44:22.515Z,73283.03
2022-10-20T03:44:59.881Z,73283.03
2022-10-20T03:45:32.078Z,73277.06
2022-10-20T03:46:04.812Z,73289.03
2022-10-20T03:46:39.656Z,73287.03
2022-10-20T03:47:12.008Z,73289.03
2022-10-20T03:47:44.197Z,73291.03
2022-10-20T03:48:19.262Z,73285.03
2022-10-20T03:48:51.441Z,73289.03
2022-10-20T03:49:23.644Z,73289.03
2022-10-20T03:49:58.454Z,73281.06
2022-10-20T03:50:30.657Z,73285.03
2022-10-20T03:51:04.680Z,73291.03
2022-10-20T03:51:39.487Z,73285.03
2022-10-20T03:52:11.669Z,73285.03
2022-10-20T03:52:43.959Z,73287.03
2022-10-20T03:53:18.760Z,73281.06
2022-10-20T03:53:50.941Z,73281.06
2022-10-20T03:54:23.119Z,73289.03
2022-10-20T03:54:57.885Z,73285.03
2022-10-20T03:55:30.183Z,73289.03
2022-10-20T03:56:06.132Z,73289.03
2022-10-20T03:56:38.369Z,73277.06
2022-10-20T03:57:13.196Z,73281.06
2022-10-20T03:57:45.556Z,73283.03
2022-10-20T03:58:17.789Z,73281.06
2022-10-20T03:58:50.095Z,73285.03
2022-10-20T03:59:28.032Z,73277.06
2022-10-20T04:00:10.544Z,73283.03
2022-10-20T04:00:48.785Z,73273.06
2022-10-20T04:01:27.827Z,73277.06
2022-10-20T04:02:02.966Z,73277.06
2022-10-20T04:02:37.801Z,73273.06
2022-10-20T04:03:11.926Z,73275.06
2022-10-20T04:03:47.603Z,73275.06
2022-10-20T04:04:19.808Z,73277.06
2022-10-20T04:04:52.546Z,73277.06
2022-10-20T04:05:27.432Z,73277.06
2022-10-20T04:06:02.256Z,73279.06
2022-10-20T04:06:36.116Z,73273.06
2022-10-20T04:07:08.332Z,73277.06
2022-10-20T04:07:43.194Z,73277.06
2022-10-20T04:09:07.558Z,73273.06
2022-10-20T04:09:43.549Z,73277.06
2022-10-20T04:10:17.402Z,73277.06
2022-10-20T04:10:49.769Z,73279.06
2022-10-20T04:11:27.049Z,73281.06
2022-10-20T04:12:00.577Z,73277.06
2022-10-20T04:12:32.874Z,73281.06
2022-10-20T04:13:09.283Z,73277.06
2022-10-20T04:13:44.528Z,73275.06
2022-10-20T04:14:16.813Z,73279.06
2022-10-20T04:14:51.766Z,73275.06
2022-10-20T04:15:27.188Z,73275.06
2022-10-20T04:16:00.061Z,73277.06
2022-10-20T04:16:34.848Z,73273.06
2022-10-20T04:17:07.229Z,73269.06
2022-10-20T04:18:37.311Z,73269.06
2022-10-20T04:19:13.830Z,73261.09
2022-10-20T04:19:47.238Z,73263.09
2022-10-20T04:20:24.392Z,73265.09
2022-10-20T04:20:56.632Z,73257.09
2022-10-20T04:21:28.923Z,73253.09
2022-10-20T04:22:03.754Z,73253.09
2022-10-20T04:22:39.209Z,73253.09
2022-10-20T04:23:13.037Z,73249.09
2022-10-20T04:23:50.412Z,73251.09
2022-10-20T04:24:22.681Z,73255.09
2022-10-20T04:24:54.956Z,73255.09
2022-10-20T04:25:29.835Z,73257.09
2022-10-20T04:26:10.201Z,73253.09
2022-10-20T04:26:42.618Z,73257.09
2022-10-20T04:27:17.563Z,73253.09
2022-10-20T04:27:49.782Z,73249.09
2022-10-20T04:28:21.991Z,73253.09
2022-10-20T04:28:59.035Z,73253.09
2022-10-20T04:29:31.681Z,73255.09
2022-10-20T04:30:04.522Z,73257.09
2022-10-20T04:30:42.210Z,73255.09
2022-10-20T04:31:14.440Z,73253.09
2022-10-20T04:31:49.011Z,73257.09
2022-10-20T04:32:24.158Z,73257.09
2022-10-20T04:32:56.340Z,73257.09
2022-10-20T04:33:28.533Z,73257.09
2022-10-20T04:34:03.360Z,73255.09
2022-10-20T04:34:36.624Z,73257.09
2022-10-20T04:35:09.756Z,73261.09
2022-10-20T04:35:42.474Z,73263.09
2022-10-20T04:36:17.828Z,73259.09
2022-10-20T04:36:50.709Z,73267.06
2022-10-20T04:37:24.220Z,73267.06
2022-10-20T04:37:59.241Z,73261.09
2022-10-20T04:38:34.615Z,73261.09
2022-10-20T04:39:10.576Z,73261.09
2022-10-20T04:39:44.395Z,73257.09
2022-10-20T04:40:20.328Z,73261.09
2022-10-20T04:40:58.127Z,73257.09
2022-10-20T04:41:38.938Z,73261.09
2022-10-20T04:42:12.221Z,73261.09
2022-10-20T04:42:44.549Z,73259.09
2022-10-20T04:43:19.401Z,73257.09
2022-10-20T04:43:53.856Z,73267.06
2022-10-20T04:44:28.079Z,73259.09
2022-10-20T04:45:04.832Z,73259.09
2022-10-20T04:45:39.894Z,73269.06
2022-10-20T04:46:15.465Z,73261.09
2022-10-20T04:46:50.687Z,73261.09
2022-10-20T04:47:25.340Z,73263.09
2022-10-20T04:48:01.495Z,73257.09
2022-10-20T04:48:38.696Z,73257.09
2022-10-20T04:49:14.226Z,73249.09
2022-10-20T04:49:48.110Z,73253.09
2022-10-20T04:50:23.010Z,73253.09
2022-10-20T04:51:13.624Z,73251.09
2022-10-20T04:51:48.476Z,73245.13
2022-10-20T04:52:20.965Z,73257.09
2022-10-20T04:52:53.161Z,73257.09
2022-10-20T04:53:28.109Z,73245.13
2022-10-20T04:54:57.717Z,73249.09
2022-10-20T04:55:32.515Z,73249.09
2022-10-20T04:56:05.701Z,73249.09
2022-10-20T04:56:38.048Z,73249.09
2022-10-20T04:57:12.820Z,73247.13
2022-10-20T04:57:45.048Z,73247.13
2022-10-20T04:58:17.284Z,73249.09
2022-10-20T04:58:52.544Z,73243.13
2022-10-20T04:59:24.764Z,73249.09
2022-10-20T04:59:56.940Z,73253.09
2022-10-20T05:00:34.509Z,73251.09
2022-10-20T05:01:10.784Z,73259.09
2022-10-20T05:01:46.016Z,73271.06
2022-10-20T05:02:19.309Z,73281.06
2022-10-20T05:02:52.806Z,73293.03
2022-10-20T05:03:29.657Z,73303.00
2022-10-20T05:04:01.868Z,73309.00
2022-10-20T05:04:34.365Z,73320.97
2022-10-20T05:05:11.687Z,73320.97
2022-10-20T05:05:43.884Z,73324.97
2022-10-20T05:06:19.414Z,73340.94
2022-10-20T05:06:56.367Z,73336.94
2022-10-20T05:07:32.108Z,73344.94
2022-10-20T05:08:06.635Z,73348.91
2022-10-20T05:08:43.757Z,73350.91
2022-10-20T05:09:16.184Z,73358.91
2022-10-20T05:09:48.705Z,73354.91
2022-10-20T05:10:23.606Z,73356.91
2022-10-20T05:10:55.796Z,73356.91
2022-10-20T05:11:29.621Z,73356.91
2022-10-20T05:12:04.483Z,73366.88
2022-10-20T05:12:36.988Z,73362.91
2022-10-20T05:13:09.611Z,73368.88
2022-10-20T05:13:44.461Z,73364.88
2022-10-20T05:14:16.728Z,73364.88
2022-10-20T05:14:48.937Z,73364.88
2022-10-20T05:15:23.757Z,73364.88
2022-10-20T05:15:57.064Z,73372.88
2022-10-20T05:16:35.401Z,73364.88
2022-10-20T05:17:09.349Z,73366.88
2022-10-20T05:17:44.968Z,73368.88
2022-10-20T05:18:17.145Z,73372.88
2022-10-20T05:18:54.164Z,73374.88
2022-10-20T05:19:31.896Z,73370.88
2022-10-20T05:20:05.180Z,73368.88
2022-10-20T05:20:41.302Z,73362.91
2022-10-20T05:21:22.005Z,73372.88
2022-10-20T05:21:54.246Z,73372.88
2022-10-20T05:22:26.464Z,73370.88
2022-10-20T05:23:03.567Z,73372.88
2022-10-20T05:24:30.780Z,73378.88
2022-10-20T05:25:24.477Z,73380.88
2022-10-20T05:25:56.621Z,73376.88
2022-10-20T05:26:34.539Z,73372.88
2022-10-20T05:27:06.749Z,73376.88
2022-10-20T05:27:39.230Z,73376.88
2022-10-20T05:28:14.083Z,73374.88
2022-10-20T05:28:49.244Z,73374.88
2022-10-20T05:29:21.692Z,73376.88
2022-10-20T05:29:56.545Z,73370.88
2022-10-20T05:30:28.907Z,73376.88
2022-10-20T05:31:02.492Z,73376.88
2022-10-20T05:31:42.005Z,73368.88
2022-10-20T05:32:14.464Z,73364.88
2022-10-20T05:32:50.840Z,73366.88
2022-10-20T05:33:29.419Z,73368.88
2022-10-20T05:34:01.675Z,73364.88
2022-10-20T05:34:36.495Z,73366.88
2022-10-20T05:35:09.415Z,73370.88
2022-10-20T05:35:41.608Z,73368.88
2022-10-20T05:36:21.184Z,73364.88
2022-10-20T05:36:54.410Z,73364.88
2022-10-20T05:37:29.201Z,73366.88
2022-10-20T05:38:01.408Z,73368.88
2022-10-20T05:38:33.595Z,73368.88
2022-10-20T05:39:08.827Z,73372.88
2022-10-20T05:39:43.744Z,73364.88
2022-10-20T05:40:16.142Z,73368.88
2022-10-20T05:40:51.004Z,73368.88
2022-10-20T05:41:25.000Z,73372.88
2022-10-20T05:41:59.828Z,73368.88
2022-10-20T05:42:32.014Z,73372.88
2022-10-20T05:43:06.392Z,73376.88
2022-10-20T05:43:43.372Z,73368.88
2022-10-20T05:44:16.469Z,73374.88
2022-10-20T05:44:52.922Z,73378.88
2022-10-20T05:45:25.329Z,73378.88
2022-10-20T05:45:57.945Z,73376.88
2022-10-20T05:46:41.756Z,73378.88
2022-10-20T05:47:14.160Z,73386.84
2022-10-20T05:47:47.514Z,73380.88
2022-10-20T05:48:24.195Z,73386.84
2022-10-20T05:49:03.821Z,73384.84
2022-10-20T05:49:37.036Z,73384.84
2022-10-20T05:50:13.908Z,73380.88
2022-10-20T05:51:40.996Z,73384.84
2022-10-20T05:52:13.200Z,73390.84
2022-10-20T05:52:47.973Z,73382.84
2022-10-20T05:53:20.375Z,73384.84
2022-10-20T05:53:53.048Z,73388.84
2022-10-20T05:54:27.818Z,73388.84
2022-10-20T05:55:02.661Z,73386.84
2022-10-20T05:55:34.947Z,73392.84
2022-10-20T05:56:09.033Z,73388.84
2022-10-20T05:56:44.265Z,73388.84
2022-10-20T05:57:16.486Z,73392.84
2022-10-20T05:57:54.116Z,73392.84
2022-10-20T05:58:28.916Z,73392.84
2022-10-20T05:59:01.105Z,73396.84
2022-10-20T05:59:35.919Z,73400.81
2022-10-20T06:00:09.922Z,73400.81
2022-10-20T06:00:52.631Z,73398.81
2022-10-20T06:01:38.792Z,73400.81
2022-10-20T06:02:11.621Z,73386.84
2022-10-20T06:02:46.402Z,73384.84
2022-10-20T06:03:19.709Z,73384.84
2022-10-20T06:03:54.462Z,73386.84
2022-10-20T06:04:29.784Z,73384.84
2022-10-20T06:05:02.039Z,73386.84
2022-10-20T06:05:34.299Z,73388.84
2022-10-20T06:06:09.295Z,73386.84
2022-10-20T06:06:41.505Z,73386.84
2022-10-20T06:07:16.338Z,73390.84
2022-10-20T06:07:48.520Z,73384.84
2022-10-20T06:08:20.732Z,73384.84
2022-10-20T06:08:55.638Z,73388.84
2022-10-20T06:09:28.008Z,73386.84
2022-10-20T06:10:05.771Z,73384.84
2022-10-20T06:10:37.988Z,73384.84
2022-10-20T06:11:11.723Z,73388.84
2022-10-20T06:11:46.602Z,73384.84
2022-10-20T06:12:18.856Z,73392.84
2022-10-20T06:12:51.051Z,73392.84
2022-10-20T06:13:25.934Z,73386.84
2022-10-20T06:13:58.128Z,73388.84
2022-10-20T06:14:33.183Z,73396.84
2022-10-20T06:15:06.665Z,73394.84
2022-10-20T06:15:38.853Z,73388.84
2022-10-20T06:16:15.720Z,73392.84
2022-10-20T06:16:50.612Z,73396.84
2022-10-20T06:17:25.677Z,73396.84
2022-10-20T06:17:57.860Z,73400.81
2022-10-20T06:18:32.674Z,73400.81
2022-10-20T06:19:06.797Z,73398.81
2022-10-20T06:19:39.028Z,73394.84
2022-10-20T06:20:14.093Z,73396.84
2022-10-20T06:20:46.316Z,73400.81
2022-10-20T06:21:20.055Z,73396.84
2022-10-20T06:21:55.265Z,73400.81
2022-10-20T06:22:27.499Z,73396.84
2022-10-20T06:22:59.704Z,73398.81
2022-10-20T06:23:34.524Z,73406.81
2022-10-20T06:24:07.331Z,73404.81
2022-10-20T06:24:42.125Z,73404.81
2022-10-20T06:25:17.191Z,73400.81
2022-10-20T06:25:49.374Z,73408.81
2022-10-20T06:26:26.212Z,73404.81
2022-10-20T06:26:58.412Z,73398.81
2022-10-20T06:28:21.572Z,73404.81
2022-10-20T06:28:58.639Z,73406.81
2022-10-20T06:29:36.141Z,73408.81
2022-10-20T06:30:09.660Z,73408.81
2022-10-20T06:30:41.850Z,73404.81
2022-10-20T06:31:15.073Z,73404.81
2022-10-20T06:31:51.323Z,73396.84
2022-10-20T06:32:24.040Z,73396.84
2022-10-20T06:32:56.240Z,73388.84
2022-10-20T06:33:33.337Z,73396.84
2022-10-20T06:34:06.548Z,73394.84
2022-10-20T06:34:41.348Z,73396.84
2022-10-20T06:35:13.649Z,73390.84
2022-10-20T06:35:45.837Z,73392.84
2022-10-20T06:36:21.320Z,73396.84
2022-10-20T06:36:53.641Z,73392.84
2022-10-20T06:37:25.846Z,73394.84
2022-10-20T06:38:00.653Z,73388.84
2022-10-20T06:38:32.890Z,73390.84
2022-10-20T06:39:09.833Z,73396.84
2022-10-20T06:39:42.010Z,73388.84
2022-10-20T06:40:14.245Z,73394.84
2022-10-20T06:40:49.067Z,73396.84
2022-10-20T06:41:21.527Z,73396.84
2022-10-20T06:41:57.002Z,73392.84
2022-10-20T06:42:35.494Z,73398.81
2022-10-20T06:43:07.917Z,73396.84
2022-10-20T06:43:46.515Z,73396.84
2022-10-20T06:44:19.152Z,73392.84
2022-10-20T06:44:55.262Z,73398.81
2022-10-20T06:45:27.448Z,73400.81
2022-10-20T06:46:00.933Z,73400.81
2022-10-20T06:46:37.511Z,73400.81
2022-10-20T06:47:10.492Z,73408.81
2022-10-20T06:47:42.759Z,73404.81
2022-10-20T06:48:17.591Z,73408.81
2022-10-20T06:48:49.858Z,73404.81
2022-10-20T06:49:25.014Z,73412.81
2022-10-20T06:49:57.208Z,73406.81
2022-10-20T06:50:29.435Z,73404.81
2022-10-20T06:51:06.495Z,73404.81
2022-10-20T06:51:39.000Z,73412.81
2022-10-20T06:52:14.274Z,73404.81
2022-10-20T06:52:46.464Z,73412.81
2022-10-20T06:53:18.742Z,73406.81
2022-10-20T06:53:54.306Z,73412.81
2022-10-20T06:54:26.586Z,73412.81
2022-10-20T06:55:01.367Z,73412.81
2022-10-20T06:55:33.601Z,73404.81
2022-10-20T06:56:08.078Z,73404.81
2022-10-20T06:56:43.220Z,73404.81
2022-10-20T06:57:15.576Z,73402.81
2022-10-20T06:57:47.784Z,73402.81
2022-10-20T06:58:22.565Z,73404.81
2022-10-20T06:58:58.103Z,73398.81
2022-10-20T06:59:33.108Z,73402.81